Time;durP1;ratioP1;P1;durP2;ratioP2;P2;SDS_P1;SDS_P2;PMS_P1;PMS_P2;Temp;Humidity;BMP_temperature;BMP_pressure;BME280_temperature;BME280_humidity;BME280_pressure;Samples;Min_cycle;Max_cycle;Signal;HPM_P1;HPM_P2
2023/08/26 07:16:52;;;;;;;11.95;3.00;;;22.50;70.40;;;;;;10459524;28;20505;-53
2023/08/26 07:21:53;;;;;;;20.02;3.65;;;22.50;70.60;;;;;;10443836;28;20094;-54
2023/08/26 07:26:54;;;;;;;12.23;2.83;;;22.50;70.60;;;;;;10442152;28;20025;-55
2023/08/26 07:31:55;;;;;;;12.13;3.42;;;22.50;70.50;;;;;;10442794;28;20024;-54
2023/08/26 07:36:55;;;;;;;19.55;4.07;;;22.60;70.50;;;;;;10443718;28;20029;-55
2023/08/26 07:41:56;;;;;;;17.17;3.72;;;22.50;70.20;;;;;;10443019;28;20055;-56
2023/08/26 07:46:57;;;;;;;24.35;3.95;;;22.50;70.30;;;;;;10441439;28;20044;-56
2023/08/26 07:51:57;;;;;;;18.77;3.22;;;22.50;69.80;;;;;;10442406;28;20652;-54
2023/08/26 07:57:00;;;;;;;14.00;3.63;;;22.50;69.80;;;;;;10442445;28;20033;-55
2023/08/26 08:02:00;;;;;;;10.38;2.60;;;22.50;69.80;;;;;;10443096;28;20036;-55
2023/08/26 08:07:01;;;;;;;12.75;2.90;;;22.50;69.60;;;;;;10431623;28;20489;-56
2023/08/26 08:12:03;;;;;;;13.32;3.10;;;22.50;69.80;;;;;;10401301;28;20091;-57
2023/08/26 08:17:04;;;;;;;29.90;4.15;;;22.50;69.80;;;;;;10407533;28;20029;-58
2023/08/26 08:22:05;;;;;;;7.78;2.50;;;22.50;69.80;;;;;;10429240;28;20021;-56
2023/08/26 08:27:06;;;;;;;8.13;2.72;;;22.50;69.60;;;;;;10420621;28;20029;-56
2023/08/26 08:32:07;;;;;;;29.08;4.85;;;22.50;69.30;;;;;;10414313;28;20025;-59
2023/08/26 08:37:07;;;;;;;11.02;2.25;;;22.40;68.90;;;;;;10414353;28;20033;-56
2023/08/26 08:42:09;;;;;;;13.13;3.28;;;22.40;68.50;;;;;;10413203;28;20025;-55
2023/08/26 08:47:11;;;;;;;13.20;3.15;;;22.40;68.20;;;;;;10413734;28;20384;-55
2023/08/26 08:52:11;;;;;;;9.77;3.17;;;22.40;68.20;;;;;;10413113;28;21962;-56
2023/08/26 08:57:15;;;;;;;12.18;2.92;;;22.40;68.10;;;;;;10411594;28;20025;-56
2023/08/26 09:02:16;;;;;;;10.18;2.58;;;22.40;67.70;;;;;;10413524;28;20025;-56
2023/08/26 09:07:18;;;;;;;7.65;2.58;;;22.40;67.60;;;;;;10391469;28;20029;-56
2023/08/26 09:12:19;;;;;;;11.40;3.20;;;22.40;67.60;;;;;;10369938;28;20101;-56
2023/08/26 09:17:20;;;;;;;10.55;2.90;;;22.40;67.40;;;;;;10378430;28;20084;-57
2023/08/26 09:22:31;;;;;;;24.55;3.83;;;22.40;66.70;;;;;;10389514;28;20107;-57
2023/08/26 09:27:42;;;;;;;16.63;4.22;;;22.40;67.50;;;;;;10381521;28;20041;-56
2023/08/26 09:32:45;;;;;;;18.63;3.45;;;22.40;67.30;;;;;;10370342;28;20038;-56
2023/08/26 09:37:47;;;;;;;13.57;2.83;;;22.40;67.30;;;;;;10373417;28;20017;-58
2023/08/26 09:42:50;;;;;;;17.45;3.08;;;22.40;66.80;;;;;;10370095;28;20057;-57
2023/08/26 09:47:51;;;;;;;12.38;2.53;;;22.40;66.80;;;;;;10368079;28;20033;-55
2023/08/26 09:52:52;;;;;;;22.13;3.40;;;22.40;67.00;;;;;;10378542;28;20562;-56
2023/08/26 09:57:53;;;;;;;21.38;3.38;;;22.40;67.00;;;;;;10399470;28;20554;-56
2023/08/26 10:03:03;;;;;;;19.33;2.55;;;22.40;67.00;;;;;;10410408;28;20036;-56
2023/08/26 10:08:08;;;;;;;14.43;3.30;;;22.50;67.10;;;;;;10409994;28;20040;-57
2023/08/26 10:13:09;;;;;;;16.75;2.97;;;22.50;67.00;;;;;;10409355;28;20045;-57
2023/08/26 10:18:18;;;;;;;13.00;2.50;;;22.50;67.00;;;;;;10396096;28;20493;-56
2023/08/26 10:23:19;;;;;;;9.93;3.03;;;22.50;66.80;;;;;;10367536;28;20096;-57
2023/08/26 10:28:22;;;;;;;14.00;3.22;;;22.50;66.60;;;;;;10359924;28;20102;-54
2023/08/26 10:33:23;;;;;;;11.98;3.67;;;22.50;66.40;;;;;;10395941;28;20042;-54
2023/08/26 10:38:24;;;;;;;14.85;3.03;;;22.60;66.30;;;;;;10367023;28;20125;-55
2023/08/26 10:43:25;;;;;;;18.30;2.63;;;22.60;66.40;;;;;;10367984;28;20022;-54
2023/08/26 10:48:26;;;;;;;17.98;3.20;;;22.60;66.20;;;;;;10383363;28;20045;-53
2023/08/26 10:53:27;;;;;;;15.07;3.10;;;22.70;66.30;;;;;;10378929;28;20021;-52
2023/08/26 10:59:08;;;;;;;12.43;2.80;;;22.70;66.00;;;;;;10384825;28;20030;-55
2023/08/26 11:04:47;;;;;;;15.63;2.80;;;22.80;66.20;;;;;;10384102;28;23493;-53
2023/08/26 11:09:48;;;;;;;11.20;2.72;;;22.80;65.90;;;;;;10378024;28;20032;-53
2023/08/26 11:14:48;;;;;;;14.30;2.83;;;22.80;66.20;;;;;;10379115;28;20042;-53
2023/08/26 11:19:49;;;;;;;18.55;3.70;;;22.80;66.00;;;;;;10369410;28;20480;-54
2023/08/26 11:24:50;;;;;;;10.02;2.38;;;22.80;65.70;;;;;;10380836;28;20088;-54
2023/08/26 11:29:51;;;;;;;8.45;2.38;;;22.80;65.60;;;;;;10384865;28;20041;-53
2023/08/26 11:34:53;;;;;;;13.00;2.25;;;22.80;65.60;;;;;;10400341;28;20680;-63
2023/08/26 11:39:58;;;;;;;8.63;1.90;;;22.90;65.60;;;;;;10394671;28;20071;-56
2023/08/26 11:44:59;;;;;;;8.43;3.05;;;22.90;65.50;;;;;;10405465;28;20048;-55
2023/08/26 11:50:00;;;;;;;9.57;3.13;;;22.90;65.70;;;;;;10407437;28;20037;-56
2023/08/26 11:55:06;;;;;;;11.50;2.20;;;22.90;65.50;;;;;;10391894;28;20026;-56
2023/08/26 12:00:13;;;;;;;12.50;2.53;;;22.90;65.20;;;;;;10393233;28;20585;-56
2023/08/26 12:05:15;;;;;;;12.32;2.28;;;22.90;65.40;;;;;;10386884;28;20050;-56
2023/08/26 12:10:18;;;;;;;13.35;2.30;;;22.90;64.80;;;;;;10373164;28;20036;-56
2023/08/26 12:15:19;;;;;;;14.25;3.72;;;22.90;64.70;;;;;;10373468;28;20129;-56
2023/08/26 12:20:27;;;;;;;11.23;2.28;;;22.90;64.80;;;;;;10373930;28;20026;-55
2023/08/26 12:25:41;;;;;;;16.30;2.13;;;22.90;64.80;;;;;;10384023;28;20369;-56
2023/08/26 12:30:44;;;;;;;9.50;2.47;;;22.80;64.70;;;;;;10389710;28;20287;-57
2023/08/26 12:35:46;;;;;;;10.73;2.10;;;22.80;64.40;;;;;;10413960;28;20033;-56
2023/08/26 12:40:49;;;;;;;10.40;2.22;;;22.80;63.40;;;;;;10414007;28;20028;-56
2023/08/26 12:45:50;;;;;;;14.30;2.20;;;22.90;64.30;;;;;;10414065;28;20416;-56
2023/08/26 12:50:51;;;;;;;10.57;2.13;;;22.80;64.20;;;;;;10413937;28;20037;-56
2023/08/26 12:55:51;;;;;;;14.88;2.75;;;22.80;64.50;;;;;;10413851;28;20026;-53
2023/08/26 13:00:52;;;;;;;12.27;2.45;;;22.80;64.30;;;;;;10364159;28;20045;-54
2023/08/26 13:05:55;;;;;;;10.40;2.35;;;22.80;64.30;;;;;;10389835;28;20044;-53
2023/08/26 13:10:56;;;;;;;14.95;3.25;;;22.70;64.40;;;;;;10370979;28;20116;-55
2023/08/26 13:15:56;;;;;;;7.90;2.22;;;22.60;64.50;;;;;;10399985;28;20160;-53
2023/08/26 13:20:57;;;;;;;15.90;4.78;;;22.60;65.10;;;;;;10370610;28;20113;-54
2023/08/26 13:25:58;;;;;;;12.85;3.10;;;22.60;65.70;;;;;;10383263;28;20038;-55
2023/08/26 13:31:02;;;;;;;15.45;3.00;;;22.70;65.80;;;;;;10399799;28;20030;-54
2023/08/26 13:36:03;;;;;;;14.60;3.00;;;22.70;66.40;;;;;;10411234;28;20022;-54
2023/08/26 13:41:03;;;;;;;12.15;3.55;;;22.70;66.50;;;;;;10410697;28;20033;-56
2023/08/26 13:46:04;;;;;;;15.25;2.70;;;22.70;66.60;;;;;;10395222;28;20037;-54
2023/08/26 13:51:05;;;;;;;21.63;3.30;;;22.60;67.20;;;;;;10370540;28;20041;-54
2023/08/26 13:56:06;;;;;;;12.90;2.67;;;22.60;67.40;;;;;;10376099;28;20378;-55
2023/08/26 14:01:06;;;;;;;13.82;3.33;;;22.60;67.60;;;;;;10401708;28;20034;-54
2023/08/26 14:06:08;;;;;;;11.50;2.75;;;22.60;67.60;;;;;;10368956;28;20026;-53
2023/08/26 14:11:09;;;;;;;8.90;2.80;;;22.60;67.80;;;;;;10368770;28;20030;-55
2023/08/26 14:16:09;;;;;;;5.35;2.15;;;22.50;67.80;;;;;;10369553;28;20049;-55
2023/08/26 14:21:10;;;;;;;12.10;2.67;;;22.60;67.90;;;;;;10367670;28;20018;-53
2023/08/26 14:26:11;;;;;;;6.53;2.00;;;22.50;68.10;;;;;;10385150;28;20029;-55
2023/08/26 14:31:12;;;;;;;11.30;2.83;;;22.60;68.10;;;;;;10399909;28;20108;-54
2023/08/26 14:36:13;;;;;;;11.68;2.65;;;22.60;68.30;;;;;;10394751;28;20053;-54
2023/08/26 14:41:13;;;;;;;9.05;2.20;;;22.60;68.30;;;;;;10408269;28;20021;-53
2023/08/26 14:46:14;;;;;;;6.88;2.67;;;22.60;68.40;;;;;;10402731;28;20033;-54
2023/08/26 14:51:15;;;;;;;19.98;3.10;;;22.60;68.60;;;;;;10394226;28;20033;-54
2023/08/26 14:56:16;;;;;;;7.53;2.13;;;22.60;68.70;;;;;;10380518;28;20500;-55
2023/08/26 15:01:16;;;;;;;11.10;2.50;;;22.70;68.70;;;;;;10371624;28;20045;-54
2023/08/26 15:06:17;;;;;;;9.77;2.03;;;22.70;68.70;;;;;;10367363;28;20080;-54
2023/08/26 15:11:18;;;;;;;16.27;2.65;;;22.60;68.90;;;;;;10371118;28;20034;-54
2023/08/26 15:16:19;;;;;;;13.38;2.45;;;22.60;69.00;;;;;;10370933;28;20053;-54
2023/08/26 15:21:19;;;;;;;10.48;2.90;;;22.60;69.20;;;;;;10370798;28;20037;-56
2023/08/26 15:26:20;;;;;;;14.95;3.17;;;22.70;69.40;;;;;;10371011;28;20030;-56
2023/08/26 15:31:21;;;;;;;42.40;4.93;;;22.60;69.60;;;;;;10384285;28;20033;-58
2023/08/26 15:36:22;;;;;;;18.77;3.72;;;22.60;69.50;;;;;;10387734;28;20025;-55
2023/08/26 15:41:22;;;;;;;32.10;11.48;;;22.60;69.50;;;;;;10402955;28;20029;-56
2023/08/26 15:46:24;;;;;;;37.10;17.33;;;22.60;69.70;;;;;;10388998;28;20037;-56
2023/08/26 15:51:25;;;;;;;40.38;14.30;;;22.60;69.80;;;;;;10394431;28;20535;-56
2023/08/26 15:56:25;;;;;;;30.45;11.63;;;22.50;69.70;;;;;;10383243;28;20034;-56
2023/08/26 16:01:27;;;;;;;24.75;10.07;;;22.60;69.70;;;;;;10390036;28;20025;-52
2023/08/26 16:06:28;;;;;;;22.95;9.43;;;22.50;69.50;;;;;;10390980;28;20041;-55
2023/08/26 16:11:30;;;;;;;27.90;11.82;;;22.50;69.80;;;;;;10380405;28;20169;-54
2023/08/26 16:16:31;;;;;;;33.38;15.07;;;22.60;70.30;;;;;;10394088;28;21229;-55
2023/08/26 16:21:32;;;;;;;32.33;14.25;;;22.50;71.10;;;;;;10375802;28;20026;-56
2023/08/26 16:26:33;;;;;;;17.50;7.53;;;22.60;74.40;;;;;;10389873;28;20042;-55
2023/08/26 16:31:33;;;;;;;17.30;6.50;;;22.80;73.70;;;;;;10379363;28;20033;-55
2023/08/26 16:36:34;;;;;;;17.25;5.40;;;22.90;72.30;;;;;;10373639;28;20044;-54
2023/08/26 16:41:35;;;;;;;14.98;5.13;;;22.90;72.00;;;;;;10373457;28;20663;-55
2023/08/26 16:46:36;;;;;;;10.90;5.30;;;22.90;72.00;;;;;;10372746;28;20037;-55
2023/08/26 16:51:36;;;;;;;11.38;4.82;;;22.90;72.30;;;;;;10373284;28;20385;-55
2023/08/26 16:56:37;;;;;;;12.07;5.38;;;22.90;71.60;;;;;;10373189;28;20049;-55
2023/08/26 17:01:38;;;;;;;10.15;4.88;;;22.80;71.60;;;;;;10372202;28;20556;-55
2023/08/26 17:06:39;;;;;;;11.07;4.25;;;22.70;71.60;;;;;;10372246;28;20053;-55
2023/08/26 17:11:39;;;;;;;8.18;3.35;;;22.70;71.60;;;;;;10400043;28;20380;-55
2023/08/26 17:16:40;;;;;;;6.90;3.75;;;22.60;71.40;;;;;;10388343;28;20045;-57
2023/08/26 17:21:41;;;;;;;7.38;3.00;;;22.50;71.20;;;;;;10374972;28;20021;-55
2023/08/26 17:26:41;;;;;;;8.07;2.90;;;22.60;70.80;;;;;;10402929;28;20044;-55
2023/08/26 17:31:42;;;;;;;5.22;2.67;;;22.60;70.80;;;;;;10389313;28;20464;-57
2023/08/26 17:36:44;;;;;;;9.00;2.95;;;22.60;71.50;;;;;;10386724;28;20109;-54
2023/08/26 17:41:44;;;;;;;7.22;2.88;;;22.60;70.80;;;;;;10386813;28;20026;-56
2023/08/26 17:46:45;;;;;;;7.10;2.15;;;22.60;70.70;;;;;;10387837;28;20473;-55
2023/08/26 17:51:46;;;;;;;6.20;1.98;;;22.60;70.60;;;;;;10390742;28;20030;-56
2023/08/26 17:56:47;;;;;;;5.95;1.63;;;22.60;70.50;;;;;;10387411;28;20051;-55
2023/08/26 18:01:47;;;;;;;3.85;1.70;;;22.60;70.30;;;;;;10384881;28;20030;-55
2023/08/26 18:06:48;;;;;;;3.97;1.92;;;22.60;70.30;;;;;;10385259;28;20022;-54
2023/08/26 18:11:49;;;;;;;4.53;1.60;;;22.60;70.20;;;;;;10386834;28;20030;-56
2023/08/26 18:16:50;;;;;;;5.35;2.45;;;22.50;70.30;;;;;;10390502;28;20038;-56
2023/08/26 18:21:51;;;;;;;7.15;1.90;;;22.50;70.30;;;;;;10376447;28;20030;-56
2023/08/26 18:26:52;;;;;;;6.43;2.10;;;22.40;70.20;;;;;;10370829;28;20649;-56
2023/08/26 18:31:52;;;;;;;5.72;1.60;;;22.40;70.10;;;;;;10379662;28;20037;-55
2023/08/26 18:36:53;;;;;;;4.05;2.05;;;22.40;69.90;;;;;;10377317;28;20076;-56
2023/08/26 18:41:54;;;;;;;3.20;1.40;;;22.40;69.90;;;;;;10370280;28;20030;-55
2023/08/26 18:46:54;;;;;;;4.82;1.45;;;22.40;69.80;;;;;;10368484;28;20035;-56
2023/08/26 18:51:56;;;;;;;2.90;1.40;;;22.40;69.70;;;;;;10371890;28;20386;-55
2023/08/26 18:56:58;;;;;;;3.78;1.27;;;22.30;69.70;;;;;;10371679;28;20038;-56
2023/08/26 19:01:58;;;;;;;2.35;1.10;;;22.30;69.60;;;;;;10367564;28;20030;-56
2023/08/26 19:06:59;;;;;;;11.32;1.67;;;22.30;69.60;;;;;;10387510;28;20369;-56
2023/08/26 19:12:02;;;;;;;4.45;1.25;;;22.20;69.40;;;;;;10375702;28;20029;-55
2023/08/26 19:17:03;;;;;;;2.25;1.30;;;22.30;69.40;;;;;;10431647;28;20045;-55
2023/08/26 19:22:03;;;;;;;1.38;1.27;;;22.30;69.30;;;;;;10408699;28;20671;-55
2023/08/26 19:27:05;;;;;;;2.42;0.90;;;22.20;69.50;;;;;;10430570;28;20033;-55
2023/08/26 19:32:08;;;;;;;1.67;1.05;;;22.20;69.60;;;;;;10415731;28;20465;-55
2023/08/26 19:37:09;;;;;;;2.53;1.15;;;22.20;70.10;;;;;;10409143;28;20491;-55
2023/08/26 19:42:10;;;;;;;2.08;1.08;;;22.20;69.60;;;;;;10408481;28;20091;-55
2023/08/26 19:47:11;;;;;;;2.10;1.10;;;22.10;69.70;;;;;;10408642;28;20572;-55
2023/08/26 19:52:12;;;;;;;1.42;0.93;;;22.20;69.90;;;;;;10407815;28;20109;-55
2023/08/26 19:57:21;;;;;;;1.25;0.90;;;22.20;69.90;;;;;;10408709;28;20033;-55
2023/08/26 20:02:22;;;;;;;8.48;1.40;;;22.10;69.80;;;;;;10407878;28;20025;-54
2023/08/26 20:07:23;;;;;;;2.30;0.98;;;22.10;70.10;;;;;;10407496;28;20033;-55
2023/08/26 20:12:25;;;;;;;1.58;1.20;;;22.10;70.10;;;;;;10430075;28;20493;-55
2023/08/26 20:17:27;;;;;;;1.65;1.10;;;22.10;70.10;;;;;;10407860;28;20046;-55
2023/08/26 20:22:28;;;;;;;1.98;1.17;;;22.10;70.10;;;;;;10411424;28;20064;-54
2023/08/26 20:27:28;;;;;;;2.20;1.33;;;22.10;70.10;;;;;;10439991;28;20045;-53
2023/08/26 20:32:29;;;;;;;1.52;1.10;;;22.10;70.10;;;;;;10418230;28;20091;-55
2023/08/26 20:37:30;;;;;;;1.98;1.13;;;22.10;70.00;;;;;;10424054;28;20036;-56
2023/08/26 20:42:31;;;;;;;2.25;1.00;;;22.00;70.00;;;;;;10414459;28;20037;-55
2023/08/26 20:47:31;;;;;;;1.50;1.15;;;22.00;70.00;;;;;;10414186;28;20029;-53
2023/08/26 20:52:32;;;;;;;2.28;1.10;;;22.00;70.00;;;;;;10413848;28;20036;-54
2023/08/26 20:57:33;;;;;;;1.52;1.02;;;22.00;70.00;;;;;;10413515;28;20094;-54
2023/08/26 21:02:34;;;;;;;2.28;1.10;;;22.00;70.00;;;;;;10414210;28;20463;-55
2023/08/26 21:07:35;;;;;;;1.15;0.88;;;22.00;70.00;;;;;;10413470;28;20072;-56
2023/08/26 21:12:36;;;;;;;2.60;1.15;;;22.00;70.00;;;;;;10413353;28;20049;-55
2023/08/26 21:17:36;;;;;;;1.90;1.20;;;22.00;70.00;;;;;;10412822;28;20030;-56
2023/08/26 21:22:38;;;;;;;3.33;1.50;;;22.00;69.90;;;;;;10412804;28;20025;-55
2023/08/26 21:27:39;;;;;;;2.38;1.10;;;22.00;69.90;;;;;;10440297;28;20033;-54
2023/08/26 21:32:40;;;;;;;1.98;1.15;;;22.00;69.90;;;;;;10428016;28;20025;-55
2023/08/26 21:37:41;;;;;;;1.80;0.85;;;22.00;69.90;;;;;;10412200;28;20022;-55
2023/08/26 21:42:42;;;;;;;2.47;1.30;;;22.00;69.90;;;;;;10411930;28;20041;-54
2023/08/26 21:47:43;;;;;;;1.65;1.20;;;21.90;69.80;;;;;;10411882;28;20037;-55
2023/08/26 21:52:43;;;;;;;1.13;0.93;;;21.90;69.80;;;;;;10411705;28;20457;-55
2023/08/26 21:58:05;;;;;;;1.92;1.00;;;21.90;69.80;;;;;;10410951;28;20038;-55
2023/08/26 22:03:05;;;;;;;1.23;0.82;;;21.90;69.70;;;;;;10422735;28;20037;-54
2023/08/26 22:08:07;;;;;;;2.33;1.48;;;21.90;69.70;;;;;;10410795;28;20067;-55
2023/08/26 22:13:08;;;;;;;1.95;1.25;;;21.90;69.70;;;;;;10410669;28;20488;-56
2023/08/26 22:18:10;;;;;;;2.20;1.10;;;21.90;69.70;;;;;;10410548;28;20025;-55
2023/08/26 22:23:11;;;;;;;2.20;1.25;;;21.90;69.70;;;;;;10410819;28;21530;-56
2023/08/26 22:28:12;;;;;;;2.40;1.48;;;21.90;69.80;;;;;;10439102;28;20068;-55
2023/08/26 22:33:14;;;;;;;1.63;0.90;;;21.80;69.70;;;;;;10410550;28;20029;-53
2023/08/26 22:38:16;;;;;;;1.38;0.75;;;21.90;69.70;;;;;;10409546;28;20029;-54
2023/08/26 22:43:17;;;;;;;3.03;1.10;;;21.80;69.70;;;;;;10409425;28;20439;-55
2023/08/26 22:48:17;;;;;;;1.48;1.10;;;21.90;69.70;;;;;;10409470;28;20038;-55
2023/08/26 22:53:18;;;;;;;2.10;1.17;;;21.80;69.70;;;;;;10409508;28;20038;-54
2023/08/26 22:58:19;;;;;;;1.55;1.05;;;21.80;69.70;;;;;;10409485;28;20033;-55
2023/08/26 23:03:19;;;;;;;1.42;1.08;;;21.80;69.70;;;;;;10409234;28;20025;-55
2023/08/26 23:08:20;;;;;;;1.52;0.80;;;21.80;69.70;;;;;;10408902;28;20044;-55
2023/08/26 23:13:21;;;;;;;3.15;1.08;;;21.80;69.70;;;;;;10422415;28;20111;-55
2023/08/26 23:18:22;;;;;;;1.30;1.05;;;21.80;69.70;;;;;;10408549;28;20030;-55
2023/08/26 23:23:23;;;;;;;1.05;0.90;;;21.80;69.70;;;;;;10408511;28;20028;-55
2023/08/26 23:28:26;;;;;;;1.85;1.25;;;21.80;69.70;;;;;;10437487;28;20365;-55
2023/08/26 23:33:26;;;;;;;1.63;1.00;;;21.80;69.70;;;;;;10408329;28;20030;-55
2023/08/26 23:38:27;;;;;;;1.20;1.08;;;21.80;69.70;;;;;;10407967;28;20636;-55
2023/08/26 23:43:29;;;;;;;2.50;1.17;;;21.80;69.70;;;;;;10409009;28;20037;-56
2023/08/26 23:48:30;;;;;;;1.23;0.98;;;21.80;69.60;;;;;;10408372;28;20037;-54
2023/08/26 23:53:30;;;;;;;2.28;1.27;;;21.80;69.70;;;;;;10408159;28;20033;-55
2023/08/26 23:58:31;;;;;;;3.30;1.42;;;21.70;69.60;;;;;;10413984;28;20029;-55
